Terminal Aerodrome Forecast
Issued by NWS

Home | Current Version | Previous Version | Graphics & Text | Print | Product List | Glossary On
Versions: 1 2 3 4 5 6 7 8 9 10 11
363
FTUS43 KMPX 241126
TAFRNH
TAF
KRNH 241126Z 2412/2512 13012KT P6SM BKN250
     FM241700 16014G22KT P6SM BKN200
     FM242000 17018G28KT P6SM BKN150
     FM250000 18013G22KT P6SM VCSH OVC050
     FM250600 20009KT P6SM OVC040=

USA.gov is the U.S. government's official web portal to all federal, state and local government web resources and services.